Stations météo

réclame
Mon MeteoGroup
Hupsel aws, Pays-Bas (6283): Température de l'air & dewpoint: 20.09.2018 17:00:00 - 26.09.2018 17:00:00 (CEST)Hupsel aws, Pays-Bas (6283): Température de l'air 5cm: 20.09.2018 17:00:00 - 26.09.2018 17:00:00 (CEST)Hupsel aws, Pays-Bas (6283): Vitesse du vent & gusts: 20.09.2018 17:00:00 - 26.09.2018 17:00:00 (CEST)Hupsel aws, Pays-Bas (6283): Direction du vent: 20.09.2018 17:00:00 - 26.09.2018 17:00:00 (CEST)Hupsel aws, Pays-Bas (6283): Quantités de précipitations: 20.09.2018 17:00:00 - 26.09.2018 17:00:00 (CEST)
Date & Time tt [°C] td [°C] tt 5cm [°C] ff [km/h] ff [knt] fx [km/h] fx [knt] dd rr [mm]
26.09.2018 17:00:00 18,5 6,1 19,2 18 10 32 18 SW 0,0
26.09.2018 16:00:00 18,4 6,3 19,7 14 8 32 18 SW 0,0
26.09.2018 15:00:00 17,8 6,7 19,3 18 10 36 19 WSW 0,0
26.09.2018 14:00:00 16,7 6,5 18,4 22 12 36 19 SW 0,0
26.09.2018 13:00:00 15,3 6,8 16,7 14 8 25 14 SW 0,0
26.09.2018 12:00:00 12,6 5,6 13,1 11 6 25 14 SSW 0,0
26.09.2018 11:00:00 11,4 5,7 11,4 11 6 22 12 SSW 0,0
26.09.2018 10:00:00 9,9 5,3 9,2 11 6 25 14 SSW 0,0
26.09.2018 09:00:00 8,0 5,6 7,0 11 6 14 8 S 0,0
26.09.2018 08:00:00 6,8 4,9 5,6 7 4 14 8 S 0,0
26.09.2018 07:00:00 7,0 5,0 5,3 11 6 18 10 S 0,0
26.09.2018 06:00:00 6,6 4,5 4,9 7 4 11 6 S 0,0
26.09.2018 05:00:00 7,1 5,0 5,4 7 4 14 8 S 0,0
26.09.2018 04:00:00 6,9 4,6 4,2 7 4 14 8 S 0,0
26.09.2018 03:00:00 5,6 4,3 2,1 7 4 11 6 S 0,0
26.09.2018 02:00:00 5,0 3,9 1,7 4 2 11 6 SE 0,0
26.09.2018 01:00:00 6,3 4,6 2,1 0 0 7 4 N 0,0
26.09.2018 00:00:00 5,7 4,4 2,6 4 2 7 4 ESE 0,0
25.09.2018 23:00:00 5,8 4,9 2,6 4 2 7 4 SSE 0,0
25.09.2018 22:00:00 6,9 5,6 3,0 4 2 4 2 SSE 0,0
25.09.2018 21:00:00 7,4 5,9 3,6 4 2 4 2 SSE 0,0
25.09.2018 20:00:00 9,3 6,7 6,2 4 2 4 2 SSE 0,0
25.09.2018 19:00:00 12,8 6,8 12,2 0 0 7 4 N 0,0
25.09.2018 18:00:00 15,6 4,8 16,2 4 2 14 8 WSW 0,0
25.09.2018 17:00:00 16,2 6,5 18,2 7 4 11 6 SSW 0,0
25.09.2018 16:00:00 15,8 5,0 18,3 7 4 14 8 SSW 0,0
25.09.2018 15:00:00 14,8 5,7 17,5 4 2 14 8 S 0,0
25.09.2018 14:00:00 14,4 5,6 15,6 4 2 14 8 NW 0,0
25.09.2018 13:00:00 14,4 5,5 15,1 7 4 11 6 W 0,0
25.09.2018 12:00:00 13,3 7,3 15,3 7 4 14 8 WSW 0,0
25.09.2018 11:00:00 11,9 8,6 12,4 4 2 11 6 W 0,0
25.09.2018 10:00:00 9,4 7,9 9,2 4 2 11 6 WSW 0,0
25.09.2018 09:00:00 6,5 6,3 4,7 4 2 4 2 S 0,0
25.09.2018 08:00:00 2,8 2,6 0,2 4 2 4 2 S 0,0
25.09.2018 07:00:00 2,4 2,1 0,0 4 2 7 4 SSW 0,0
25.09.2018 06:00:00 2,6 2,4 -0,1 4 2 7 4 SW 0,0
25.09.2018 05:00:00 3,3 3,0 0,7 0 0 4 2 N 0,0
25.09.2018 04:00:00 3,5 3,3 0,9 4 2 7 4 SSW 0,0
25.09.2018 03:00:00 4,8 4,5 1,3 4 2 7 4 SSW 0,0
25.09.2018 02:00:00 4,8 4,5 2,1 0 0 11 6 N 0,0
25.09.2018 01:00:00 5,4 5,2 1,6 7 4 11 6 WSW 0,0
25.09.2018 00:00:00 5,0 4,7 2,3 4 2 11 6 SW 0,0
24.09.2018 23:00:00 6,3 5,7 4,2 4 2 11 6 WSW 0,0
24.09.2018 22:00:00 7,9 6,7 6,5 7 4 14 8 WSW 0,0
24.09.2018 21:00:00 8,9 6,4 7,3 7 4 14 8 W 0,0
24.09.2018 20:00:00 10,3 6,1 9,0 14 8 29 16 WNW 0,0
24.09.2018 19:00:00 11,0 6,2 10,0 14 8 29 16 WNW 0,0
24.09.2018 18:00:00 11,9 7,0 12,2 14 8 54 29 NW 0,0
24.09.2018 17:00:00 13,5 6,0 13,1 29 16 50 27 NW 0,0
24.09.2018 16:00:00 13,9 6,7 15,2 22 12 40 21 WNW 0,0
24.09.2018 15:00:00 13,4 8,0 15,2 25 14 40 21 W 0,0
24.09.2018 14:00:00 13,7 9,1 14,6 14 8 29 16 NW 0,0
24.09.2018 13:00:00 9,4 7,2 9,3 14 8 50 27 WNW 0,7
24.09.2018 12:00:00 13,4 7,6 13,9 14 8 32 18 WNW 0,0
24.09.2018 11:00:00 12,1 7,3 12,7 18 10 32 18 W 0,0
24.09.2018 10:00:00 10,2 6,6 9,9 14 8 22 12 WNW 0,0
24.09.2018 09:00:00 9,1 6,4 8,0 11 6 18 10 W 0,0
24.09.2018 08:00:00 7,0 5,4 5,7 7 4 14 8 WSW 0,0
24.09.2018 07:00:00 6,9 5,3 5,1 7 4 18 10 W 0,0
24.09.2018 06:00:00 7,1 5,3 5,6 11 6 18 10 W 0,0
24.09.2018 05:00:00 6,8 5,5 5,4 11 6 14 8 WSW 0,0
24.09.2018 04:00:00 7,4 5,5 5,7 11 6 14 8 W 0,0
24.09.2018 03:00:00 7,1 5,6 5,7 11 6 14 8 W 0,0
24.09.2018 02:00:00 7,1 5,9 5,5 7 4 14 8 W 0,0
24.09.2018 01:00:00 7,6 6,5 6,4 7 4 14 8 W 0,0
24.09.2018 00:00:00 7,9 7,0 6,7 7 4 14 8 W 0,0
23.09.2018 23:00:00 8,3 7,5 7,2 7 4 18 10 WSW 0,0
23.09.2018 22:00:00 9,1 8,1 8,5 11 6 18 10 W 0,0
23.09.2018 21:00:00 9,1 8,4 8,7 11 6 18 10 W 0,0
23.09.2018 20:00:00 9,1 8,2 8,7 14 8 22 12 WNW 0,3
23.09.2018 19:00:00 9,5 8,6 9,3 14 8 25 14 NW 0,0
23.09.2018 18:00:00 9,8 8,8 9,8 14 8 25 14 NW 0,7
23.09.2018 17:00:00 9,7 9,1 9,3 14 8 29 16 NNW 1,7
23.09.2018 16:00:00 9,7 8,3 9,5 22 12 32 18 N 1,4
23.09.2018 15:00:00 10,4 9,8 10,3 18 10 29 16 N 2,3
23.09.2018 14:00:00 10,5 9,9 10,6 18 10 25 14 NNE 2,2
23.09.2018 13:00:00 10,8 10,1 10,9 14 8 22 12 NNE 2,6
23.09.2018 12:00:00 10,9 10,2 11,2 14 8 18 10 NNE 1,0
23.09.2018 11:00:00 10,8 10,0 11,1 11 6 14 8 NE 0,5
23.09.2018 10:00:00 11,0 10,2 10,8 11 6 14 8 NE 0,0
23.09.2018 09:00:00 10,4 9,9 10,4 7 4 11 6 NE 0,0
23.09.2018 08:00:00 10,1 9,8 9,9 7 4 11 6 NE 0,0
23.09.2018 07:00:00 10,0 9,8 9,8 4 2 11 6 ENE 0,0
23.09.2018 06:00:00 10,0 9,7 9,7 4 2 7 4 SE 0,0
23.09.2018 05:00:00 9,9 9,6 9,6 4 2 11 6 NE 0,0
23.09.2018 04:00:00 10,0 9,7 9,8 7 4 11 6 SSE 0,0
23.09.2018 03:00:00 10,2 10,0 10,0 4 2 11 6 S 0,0
23.09.2018 02:00:00 10,2 10,0 10,0 4 2 11 6 S 0,0
23.09.2018 01:00:00 10,1 9,8 9,7 7 4 11 6 S 0,0
23.09.2018 00:00:00 10,3 9,9 10,0 7 4 14 8 S 0,0
22.09.2018 23:00:00 10,5 9,9 10,2 7 4 14 8 S 0,1
22.09.2018 22:00:00 10,8 10,2 10,4 7 4 14 8 SSW 0,2
22.09.2018 21:00:00 10,8 9,9 10,4 7 4 14 8 SSW 0,2
22.09.2018 20:00:00 10,5 9,6 10,1 7 4 22 12 SW 0,3
22.09.2018 19:00:00 10,9 9,6 10,7 11 6 22 12 SW 0,3
22.09.2018 18:00:00 11,3 9,8 10,9 11 6 22 12 WSW 0,3
22.09.2018 17:00:00 11,1 9,5 10,7 11 6 25 14 W 1,2
22.09.2018 16:00:00 10,7 8,8 10,4 14 8 47 25 W 1,1
22.09.2018 15:00:00 15,9 8,6 16,2 22 12 43 23 SW 0,0
22.09.2018 14:00:00 16,1 8,7 16,5 22 12 40 21 SW 0,0
22.09.2018 13:00:00 15,3 9,0 15,7 22 12 40 21 SW 0,0
22.09.2018 12:00:00 15,4 10,0 15,6 18 10 32 18 SW 0,0
22.09.2018 11:00:00 13,6 9,5 14,0 14 8 32 18 SW 0,0
22.09.2018 10:00:00 12,9 9,3 12,7 14 8 32 18 SW 0,0
22.09.2018 09:00:00 11,6 8,9 10,8 11 6 22 12 SSW 0,0
22.09.2018 08:00:00 10,5 8,3 9,4 7 4 22 12 SSW 0,0
22.09.2018 07:00:00 10,2 8,1 9,1 11 6 22 12 SW 0,0
22.09.2018 06:00:00 10,6 8,4 9,6 11 6 25 14 SW 0,0
22.09.2018 05:00:00 10,8 8,5 9,6 14 8 25 14 SW 0,0
22.09.2018 04:00:00 10,6 8,2 9,2 11 6 25 14 SW 0,0
22.09.2018 03:00:00 10,8 8,4 9,7 11 6 32 18 SW 0,0
22.09.2018 02:00:00 11,0 8,8 10,1 11 6 32 18 SW 0,0
22.09.2018 01:00:00 11,1 8,8 10,2 14 8 32 18 SW 0,0
22.09.2018 00:00:00 11,1 9,4 10,3 18 10 36 19 SW 0,3
21.09.2018 23:00:00 11,1 8,5 10,0 14 8 29 16 SW 0,1
21.09.2018 22:00:00 10,5 9,1 9,8 7 4 29 16 SSW 2,5
21.09.2018 21:00:00 10,9 8,0 9,9 14 8 36 19 SW 0,7
21.09.2018 20:00:00 11,6 6,9 10,6 36 19 61 33 WSW 0,2
21.09.2018 19:00:00 14,8 4,1 14,0 32 18 58 31 WSW 0,0
21.09.2018 18:00:00 15,7 4,4 15,6 43 23 61 33 WSW 0,0
21.09.2018 17:00:00 16,8 5,6 17,3 22 12 47 25 W 0,0
21.09.2018 16:00:00 16,0 4,8 16,4 22 12 50 27 W 0,0
21.09.2018 15:00:00 15,2 7,4 15,0 22 12 47 25 W 0,0
21.09.2018 14:00:00 15,8 6,8 15,8 25 14 50 27 W 0,0
21.09.2018 13:00:00 16,5 10,3 16,6 29 16 54 29 WSW 0,0
21.09.2018 12:00:00 16,3 10,2 15,7 32 18 54 29 WSW 0,0
21.09.2018 11:00:00 15,3 12,8 14,8 25 14 61 33 WSW 0,2
21.09.2018 10:00:00 18,5 14,5 17,5 22 12 40 21 SW 0,6
21.09.2018 09:00:00 18,0 14,0 16,6 25 14 54 29 SSW 1,1
21.09.2018 08:00:00 20,7 11,7 20,0 22 12 47 25 SSW 0,0
21.09.2018 07:00:00 20,0 12,5 18,8 18 10 43 23 S 0,0
21.09.2018 06:00:00 20,5 12,7 19,3 22 12 36 19 S 0,0
21.09.2018 05:00:00 20,3 12,6 18,9 22 12 36 19 S 0,0
21.09.2018 04:00:00 20,4 12,5 19,2 18 10 32 18 S 0,0
21.09.2018 03:00:00 20,4 12,2 18,9 18 10 32 18 S 0,0
21.09.2018 02:00:00 20,3 11,9 18,9 18 10 32 18 S 0,0
21.09.2018 01:00:00 20,7 11,8 19,2 18 10 29 16 S 0,0
21.09.2018 00:00:00 20,1 11,9 17,6 14 8 25 14 S 0,0
20.09.2018 23:00:00 16,8 12,5 13,0 7 4 11 6 S 0,0
20.09.2018 22:00:00 17,3 12,4 12,6 7 4 11 6 S 0,0
20.09.2018 21:00:00 18,3 12,5 14,3 7 4 11 6 S 0,0
20.09.2018 20:00:00 20,5 12,6 17,6 7 4 25 14 S 0,0
20.09.2018 19:00:00 23,0 12,7 22,0 11 6 32 18 S 0,0
20.09.2018 18:00:00 24,0 12,6 24,0 14 8 32 18 SSW 0,0
20.09.2018 17:00:00 24,5 12,7 26,1 18 10 36 19 SSW 0,0

tt = Température de l'air
td = dewpoint
tt 5cm = Température de l'air 5cm
ff = Vitesse du vent
fx = gusts
dd = Direction du vent
rr = Quantités de précipitations

stations d'obs. à proximité